createdAt,value
2017-06-14T00:00:53.702Z,5.85
2017-06-14T00:03:20.800Z,6.85
2017-06-14T00:05:47.144Z,6.75
2017-06-14T00:08:13.503Z,6.50
2017-06-14T00:10:39.865Z,10.07
2017-06-14T00:13:06.188Z,6.70
2017-06-14T00:15:32.885Z,9.02
2017-06-14T00:17:59.254Z,6.85
2017-06-14T00:20:25.616Z,12.82
2017-06-14T00:22:51.962Z,6.75
2017-06-14T00:25:18.352Z,5.90
2017-06-14T00:27:44.709Z,6.78
2017-06-14T00:30:11.156Z,7.15
2017-06-14T00:32:37.510Z,8.48
2017-06-14T00:35:03.887Z,7.18
2017-06-14T00:37:30.273Z,9.25
2017-06-14T00:39:56.621Z,9.13
2017-06-14T00:42:22.970Z,8.07
2017-06-14T00:44:50.179Z,7.72
2017-06-14T00:47:16.552Z,7.25
2017-06-14T00:49:43.689Z,7.82
2017-06-14T00:52:10.044Z,6.53
2017-06-14T00:54:36.426Z,7.35
2017-06-14T00:57:02.764Z,6.78
2017-06-14T00:59:29.214Z,8.95
2017-06-14T01:01:55.543Z,7.10
2017-06-14T01:04:21.901Z,7.97
2017-06-14T01:06:48.278Z,8.68
2017-06-14T01:09:14.605Z,9.10
2017-06-14T01:11:40.952Z,7.25
2017-06-14T01:14:07.309Z,6.45
2017-06-14T01:16:34.412Z,6.50
2017-06-14T01:19:00.764Z,7.72
2017-06-14T01:21:27.137Z,8.90
2017-06-14T01:23:53.496Z,7.97
2017-06-14T01:26:19.889Z,8.38
2017-06-14T01:28:47.010Z,7.53
2017-06-14T01:31:13.370Z,7.18
2017-06-14T01:33:39.749Z,6.45
2017-06-14T01:36:06.548Z,7.00
2017-06-14T01:38:32.911Z,6.35
2017-06-14T01:40:59.272Z,6.12
2017-06-14T01:43:25.710Z,7.50
2017-06-14T01:45:52.062Z,7.40
2017-06-14T01:48:18.463Z,7.68
2017-06-14T01:50:44.849Z,6.82
2017-06-14T01:53:11.228Z,6.97
2017-06-14T01:55:37.903Z,8.40
2017-06-14T01:58:05.008Z,7.60
2017-06-14T02:00:31.398Z,8.27
2017-06-14T02:02:57.770Z,7.37
2017-06-14T02:05:24.141Z,7.10
2017-06-14T02:07:50.511Z,10.27
2017-06-14T02:10:16.864Z,10.02
2017-06-14T02:12:43.210Z,6.60
2017-06-14T02:15:09.553Z,7.57
2017-06-14T02:17:35.914Z,7.00
2017-06-14T02:20:02.287Z,8.43
2017-06-14T02:22:28.640Z,7.62
2017-06-14T02:24:54.965Z,7.30
2017-06-14T02:27:21.373Z,7.47
2017-06-14T02:29:47.701Z,7.87
2017-06-14T02:32:14.820Z,8.32
2017-06-14T02:34:41.209Z,8.25
2017-06-14T02:37:07.586Z,10.57
2017-06-14T02:39:33.932Z,7.35
2017-06-14T02:42:00.295Z,7.25
2017-06-14T02:44:26.717Z,7.30
2017-06-14T02:46:53.067Z,7.75
2017-06-14T02:49:20.208Z,8.35
2017-06-14T02:51:47.316Z,7.10
2017-06-14T02:54:13.669Z,7.10
2017-06-14T02:56:40.016Z,9.43
2017-06-14T02:59:06.401Z,8.10
2017-06-14T03:01:33.124Z,7.30
2017-06-14T03:03:59.466Z,7.45
2017-06-14T03:06:47.734Z,8.02
2017-06-14T03:09:14.085Z,11.68
2017-06-14T03:11:40.429Z,7.43
2017-06-14T03:14:06.778Z,8.52
2017-06-14T03:16:33.153Z,7.50
2017-06-14T03:18:59.488Z,7.75
2017-06-14T03:21:25.873Z,8.95
2017-06-14T03:23:52.306Z,9.90
2017-06-14T03:26:18.724Z,11.73
2017-06-14T03:28:45.627Z,9.30
2017-06-14T03:31:12.092Z,8.32
2017-06-14T03:33:38.425Z,9.70
2017-06-14T03:36:04.777Z,7.97
2017-06-14T03:38:31.325Z,9.68
2017-06-14T03:40:57.650Z,9.55
2017-06-14T03:43:23.996Z,8.90
2017-06-14T03:45:50.375Z,9.75
2017-06-14T03:48:16.753Z,9.25
2017-06-14T03:50:43.095Z,9.32
2017-06-14T03:53:09.429Z,13.10
2017-06-14T03:55:35.814Z,9.98
2017-06-14T03:58:02.148Z,8.63
2017-06-14T04:00:28.477Z,11.30
2017-06-14T04:02:54.829Z,11.40
2017-06-14T04:05:21.177Z,9.95
2017-06-14T04:07:47.541Z,8.52
2017-06-14T04:10:13.893Z,11.05
2017-06-14T04:12:40.226Z,9.80
2017-06-14T04:15:07.753Z,10.07
2017-06-14T04:17:34.506Z,9.52
2017-06-14T04:20:00.860Z,9.90
2017-06-14T04:22:28.156Z,9.50
2017-06-14T04:24:54.737Z,10.73
2017-06-14T04:27:21.366Z,9.48
2017-06-14T04:29:47.849Z,11.05
2017-06-14T04:32:14.469Z,10.00
2017-06-14T04:34:41.093Z,10.38
2017-06-14T04:37:08.427Z,11.52
2017-06-14T04:39:35.748Z,11.50
2017-06-14T04:42:02.353Z,11.15
2017-06-14T04:44:29.817Z,12.43
2017-06-14T04:46:57.194Z,12.65
2017-06-14T04:49:24.517Z,10.68
2017-06-14T04:51:51.090Z,11.48
2017-06-14T05:07:13.493Z,13.70
2017-06-14T05:09:39.851Z,10.23
2017-06-14T05:12:07.026Z,16.25
2017-06-14T05:14:33.368Z,10.63
2017-06-14T05:16:59.770Z,11.80
2017-06-14T05:19:26.121Z,9.95
2017-06-14T05:21:52.453Z,10.07
2017-06-14T05:24:19.521Z,11.60
2017-06-14T05:26:45.861Z,14.15
2017-06-14T05:29:12.331Z,12.70
2017-06-14T05:31:38.660Z,13.18
2017-06-14T05:34:04.995Z,12.85
2017-06-14T05:36:31.370Z,12.80
2017-06-14T05:38:58.465Z,11.90
2017-06-14T05:41:24.810Z,13.90
2017-06-14T05:43:51.132Z,12.50
2017-06-14T05:46:17.489Z,20.03
2017-06-14T05:48:43.797Z,11.87
2017-06-14T05:51:10.124Z,11.67
2017-06-14T05:53:36.490Z,14.80
2017-06-14T05:56:02.883Z,14.97
2017-06-14T05:58:29.220Z,17.57
2017-06-14T06:00:55.577Z,12.40
2017-06-14T06:03:21.901Z,21.63
2017-06-14T06:05:48.250Z,18.07
2017-06-14T06:08:14.593Z,11.30
2017-06-14T06:10:40.910Z,13.37
2017-06-14T06:13:07.300Z,13.80
2017-06-14T06:15:33.645Z,12.50
2017-06-14T06:18:00.004Z,10.90
2017-06-14T06:20:26.336Z,19.83
2017-06-14T06:22:52.709Z,22.13
2017-06-14T06:25:19.036Z,22.40
2017-06-14T06:27:46.566Z,17.47
2017-06-14T06:30:12.889Z,11.93
2017-06-14T06:32:39.220Z,9.40
2017-06-14T06:35:05.565Z,8.00
2017-06-14T06:37:31.901Z,10.30
2017-06-14T06:39:58.989Z,9.13
2017-06-14T06:42:25.347Z,10.53
2017-06-14T06:44:51.696Z,10.70
2017-06-14T06:47:18.157Z,6.13
2017-06-14T06:49:44.770Z,8.73
2017-06-14T06:52:11.431Z,8.57
2017-06-14T06:54:38.056Z,5.57
2017-06-14T06:57:04.680Z,5.30
2017-06-14T06:59:31.337Z,6.80
2017-06-14T07:01:58.253Z,7.77
2017-06-14T07:04:25.578Z,5.43
2017-06-14T07:06:52.164Z,7.30
2017-06-14T07:09:18.714Z,5.90
2017-06-14T07:11:45.353Z,7.00
2017-06-14T07:14:12.013Z,5.70
2017-06-14T07:16:38.628Z,6.00
2017-06-14T07:19:05.965Z,7.57
2017-06-14T07:21:32.530Z,6.77
2017-06-14T07:23:59.135Z,4.50
2017-06-14T07:26:26.449Z,9.30
2017-06-14T07:28:52.985Z,8.37
2017-06-14T07:31:19.546Z,12.50
2017-06-14T07:33:46.191Z,5.10
2017-06-14T07:36:12.665Z,4.73
2017-06-14T07:38:39.252Z,5.33
2017-06-14T07:41:06.589Z,10.77
2017-06-14T07:43:33.102Z,4.57
2017-06-14T07:45:59.648Z,6.33
2017-06-14T07:48:26.209Z,7.00
2017-06-14T07:50:52.884Z,8.23
2017-06-14T07:53:19.473Z,3.60
2017-06-14T07:55:46.777Z,4.50
2017-06-14T07:58:13.492Z,6.67
2017-06-14T08:00:40.116Z,3.23
2017-06-14T08:03:06.601Z,3.40
2017-06-14T08:05:33.173Z,4.20
2017-06-14T08:07:59.725Z,5.77
2017-06-14T08:10:26.320Z,4.53
2017-06-14T08:12:56.286Z,2.43
2017-06-14T08:15:22.845Z,2.53
2017-06-14T08:17:49.384Z,2.50
2017-06-14T08:20:16.003Z,3.67
2017-06-14T08:22:42.609Z,5.07
2017-06-14T08:25:09.244Z,2.30
2017-06-14T08:27:35.813Z,2.70
2017-06-14T08:30:02.381Z,1.63
2017-06-14T08:32:28.913Z,7.27
2017-06-14T08:34:55.509Z,6.17
2017-06-14T08:37:22.005Z,2.60
2017-06-14T08:39:48.432Z,4.10
2017-06-14T08:42:15.016Z,3.47
2017-06-14T08:44:44.709Z,4.37
2017-06-14T08:47:11.328Z,3.80
2017-06-14T08:49:37.931Z,3.03
2017-06-14T08:52:04.508Z,4.93
2017-06-14T08:54:31.029Z,4.20
2017-06-14T08:56:57.609Z,4.47
2017-06-14T08:59:24.546Z,4.40
2017-06-14T09:01:51.133Z,4.00
2017-06-14T09:04:17.692Z,4.63
2017-06-14T09:06:44.313Z,3.90
2017-06-14T09:09:10.803Z,3.63
2017-06-14T09:11:37.378Z,2.13
2017-06-14T09:14:03.938Z,3.03
2017-06-14T09:16:32.579Z,2.67
2017-06-14T09:18:59.103Z,2.40
2017-06-14T09:21:25.692Z,1.17
2017-06-14T09:23:52.281Z,3.33
2017-06-14T09:26:21.181Z,1.43
2017-06-14T09:28:47.781Z,1.80
2017-06-14T09:31:15.698Z,2.33
2017-06-14T09:33:42.245Z,1.77
2017-06-14T09:36:09.554Z,1.70
2017-06-14T09:38:36.139Z,2.03
2017-06-14T09:41:02.725Z,1.40
2017-06-14T09:43:29.305Z,1.70
2017-06-14T09:45:55.825Z,1.80
2017-06-14T09:48:23.128Z,2.07
2017-06-14T09:50:49.762Z,2.10
2017-06-14T09:53:16.275Z,1.67
2017-06-14T09:55:42.880Z,2.00
2017-06-14T09:58:09.425Z,1.83
2017-06-14T10:00:36.643Z,2.20
2017-06-14T10:03:03.355Z,1.47
2017-06-14T10:05:29.925Z,2.50
2017-06-14T10:07:56.492Z,1.60
2017-06-14T10:10:23.048Z,2.57
2017-06-14T10:12:49.592Z,1.50
2017-06-14T10:15:16.145Z,1.97
2017-06-14T10:17:45.970Z,1.80
2017-06-14T10:20:12.693Z,2.10
2017-06-14T10:22:39.240Z,1.60
2017-06-14T10:25:07.610Z,0.90
2017-06-14T10:27:35.542Z,1.50
2017-06-14T10:30:02.158Z,1.50
2017-06-14T10:35:02.057Z,1.83
2017-06-14T10:37:28.621Z,2.50
2017-06-14T10:39:55.208Z,1.60
2017-06-14T10:42:21.756Z,1.77
2017-06-14T10:44:48.297Z,8.90
2017-06-14T10:47:14.833Z,1.87
2017-06-14T10:49:44.163Z,2.47
2017-06-14T10:52:10.701Z,3.40
2017-06-14T10:54:37.237Z,1.87
2017-06-14T10:57:03.865Z,2.43
2017-06-14T10:59:31.180Z,1.80
2017-06-14T11:01:57.802Z,3.90
2017-06-14T11:04:24.318Z,2.90
2017-06-14T11:06:58.584Z,2.33
2017-06-14T11:09:25.117Z,5.53
2017-06-14T11:11:51.683Z,4.07
2017-06-14T11:14:18.276Z,1.70
2017-06-14T11:16:44.886Z,3.33
2017-06-14T11:19:11.391Z,2.90
2017-06-14T11:21:37.993Z,1.47
2017-06-14T11:24:04.603Z,1.27
2017-06-14T11:26:31.161Z,3.40
2017-06-14T11:28:57.800Z,1.63
2017-06-14T11:31:24.369Z,1.60
2017-06-14T11:33:50.857Z,2.00
2017-06-14T11:36:17.445Z,2.80
2017-06-14T11:38:44.032Z,2.10
2017-06-14T11:41:10.597Z,1.63
2017-06-14T11:43:37.048Z,1.77
2017-06-14T11:46:03.613Z,1.20
2017-06-14T11:48:30.149Z,2.20
2017-06-14T11:50:56.721Z,1.70
2017-06-14T11:53:23.319Z,2.17
2017-06-14T11:55:49.894Z,3.60
2017-06-14T11:58:16.452Z,2.47
2017-06-14T12:00:42.904Z,3.23
2017-06-14T12:03:09.714Z,1.40
2017-06-14T12:05:36.335Z,2.30
2017-06-14T12:08:02.878Z,3.33
2017-06-14T12:10:29.433Z,1.90
2017-06-14T12:12:56.367Z,1.90
2017-06-14T12:15:22.984Z,1.53
2017-06-14T12:17:52.914Z,2.30
2017-06-14T12:20:19.464Z,2.30
2017-06-14T12:22:46.049Z,3.00
2017-06-14T12:25:12.637Z,2.77
2017-06-14T12:27:39.185Z,2.90
2017-06-14T12:30:05.764Z,1.63
2017-06-14T12:32:32.301Z,3.90
2017-06-14T12:34:59.673Z,1.57
2017-06-14T12:37:26.126Z,2.37
2017-06-14T12:39:52.727Z,1.77
2017-06-14T12:42:19.265Z,1.80
2017-06-14T12:44:45.905Z,2.47
2017-06-14T12:47:13.275Z,2.97
2017-06-14T12:49:39.831Z,2.20
2017-06-14T12:52:06.437Z,3.33
2017-06-14T12:57:04.712Z,1.83
2017-06-14T12:59:31.257Z,1.73
2017-06-14T13:01:57.806Z,1.50
2017-06-14T13:04:24.357Z,3.40
2017-06-14T13:06:50.904Z,1.80
2017-06-14T13:09:21.626Z,1.50
2017-06-14T13:11:48.222Z,1.70
2017-06-14T13:14:14.797Z,1.67
2017-06-14T13:16:41.371Z,3.33
2017-06-14T13:19:07.974Z,1.53
2017-06-14T13:21:34.457Z,2.10
2017-06-14T13:24:00.997Z,3.00
2017-06-14T13:26:27.742Z,7.80
2017-06-14T13:28:54.210Z,4.57
2017-06-14T13:31:20.780Z,3.90
2017-06-14T13:33:47.322Z,1.40
2017-06-14T13:36:13.929Z,2.50
2017-06-14T13:38:40.505Z,2.90
2017-06-14T13:41:07.089Z,2.03
2017-06-14T13:43:33.736Z,2.60
2017-06-14T13:46:00.853Z,2.07
2017-06-14T13:48:27.457Z,3.57
2017-06-14T13:50:54.005Z,2.03
2017-06-14T13:53:20.564Z,2.20
2017-06-14T13:55:47.102Z,3.03
2017-06-14T13:58:13.637Z,1.30
2017-06-14T14:00:40.172Z,3.17
2017-06-14T14:03:07.469Z,5.73
2017-06-14T14:05:34.057Z,2.00
2017-06-14T14:08:01.369Z,1.50
2017-06-14T14:10:27.974Z,2.77
2017-06-14T14:12:54.524Z,2.90
2017-06-14T14:15:21.826Z,1.57
2017-06-14T14:17:48.419Z,2.03
2017-06-14T14:20:15.792Z,2.60
2017-06-14T14:22:42.377Z,3.20
2017-06-14T14:25:08.929Z,1.63
2017-06-14T14:27:35.524Z,2.17
2017-06-14T14:30:02.078Z,4.00
2017-06-14T14:32:28.437Z,2.97
2017-06-14T14:34:54.781Z,2.57
2017-06-14T14:37:21.858Z,3.50
2017-06-14T14:39:48.221Z,1.30
2017-06-14T14:42:14.556Z,1.80
2017-06-14T14:44:41.705Z,1.87
2017-06-14T14:47:08.041Z,2.40
2017-06-14T14:49:34.380Z,1.67
2017-06-14T14:52:00.727Z,1.57
2017-06-14T14:54:27.230Z,3.70
2017-06-14T14:56:54.305Z,2.00
2017-06-14T14:59:20.645Z,3.20
2017-06-14T15:01:46.965Z,2.30
2017-06-14T15:04:13.365Z,1.47
2017-06-14T15:06:39.708Z,6.30
2017-06-14T15:09:06.769Z,3.00
2017-06-14T15:11:33.080Z,3.83
2017-06-14T15:14:01.725Z,1.70
2017-06-14T15:16:28.209Z,2.60
2017-06-14T15:18:55.285Z,2.57
2017-06-14T15:21:21.634Z,1.57
2017-06-14T15:23:47.961Z,1.50
2017-06-14T15:26:14.273Z,2.77
2017-06-14T15:28:40.631Z,3.83
2017-06-14T15:31:07.007Z,2.07
2017-06-14T15:33:33.339Z,2.63
2017-06-14T15:35:59.680Z,1.50
2017-06-14T15:38:26.111Z,3.20
2017-06-14T15:40:52.456Z,3.63
2017-06-14T15:43:18.785Z,2.20
2017-06-14T15:45:45.151Z,3.53
2017-06-14T15:48:11.517Z,3.33
2017-06-14T15:50:38.589Z,1.97
2017-06-14T15:53:04.995Z,2.10
2017-06-14T15:55:31.445Z,1.77
2017-06-14T15:57:57.829Z,2.40
2017-06-14T16:00:29.001Z,2.87
2017-06-14T16:02:56.445Z,3.23
2017-06-14T16:05:25.078Z,1.60
2017-06-14T16:07:52.300Z,1.70
2017-06-14T16:10:18.810Z,2.30
2017-06-14T16:12:45.317Z,2.17
2017-06-14T16:15:12.577Z,1.50
2017-06-14T16:17:41.989Z,2.50
2017-06-14T16:20:08.782Z,2.90
2017-06-14T16:22:35.154Z,2.30
2017-06-14T16:25:01.526Z,2.93
2017-06-14T16:27:28.223Z,1.80
2017-06-14T16:29:56.730Z,2.27
2017-06-14T16:32:23.426Z,2.63
2017-06-14T16:34:49.737Z,1.90
2017-06-14T16:37:16.073Z,2.13
2017-06-14T16:39:42.501Z,2.13
2017-06-14T16:42:08.966Z,1.53
2017-06-14T16:47:19.322Z,3.33
2017-06-14T16:49:45.714Z,3.20
2017-06-14T16:52:12.986Z,2.47
2017-06-14T16:54:44.658Z,2.60
2017-06-14T16:57:11.681Z,3.20
2017-06-14T16:59:38.106Z,2.13
2017-06-14T17:02:04.514Z,2.47
2017-06-14T17:04:31.107Z,4.80
2017-06-14T17:06:59.151Z,2.60
2017-06-14T17:09:25.570Z,2.70
2017-06-14T17:11:53.187Z,2.20
2017-06-14T17:14:19.517Z,1.87
2017-06-14T17:16:45.853Z,2.50
2017-06-14T17:19:12.197Z,3.80
2017-06-14T17:21:39.659Z,2.23
2017-06-14T17:24:06.001Z,3.47
2017-06-14T17:26:32.344Z,3.50
2017-06-14T17:28:58.686Z,4.00
2017-06-14T17:31:25.063Z,1.77
2017-06-14T17:33:51.417Z,3.23
2017-06-14T17:36:18.685Z,2.47
2017-06-14T17:38:45.193Z,2.03
2017-06-14T17:41:12.341Z,2.07
2017-06-14T17:43:39.732Z,1.93
2017-06-14T17:46:06.081Z,3.00
2017-06-14T17:48:32.561Z,2.60
2017-06-14T17:50:59.709Z,1.63
2017-06-14T17:53:26.154Z,3.67
2017-06-14T17:55:52.585Z,2.03
2017-06-14T17:58:18.929Z,4.30
2017-06-14T18:00:45.352Z,1.83
2017-06-14T18:03:11.846Z,4.70
2017-06-14T18:05:38.221Z,2.27
2017-06-14T18:08:04.629Z,1.80
2017-06-14T18:10:31.717Z,2.27
2017-06-14T18:12:58.133Z,2.10
2017-06-14T18:15:25.289Z,1.83
2017-06-14T18:17:52.373Z,2.73
2017-06-14T18:20:18.770Z,2.73
2017-06-14T18:22:46.321Z,2.97
2017-06-14T18:25:12.928Z,2.40
2017-06-14T18:27:39.597Z,4.57
2017-06-14T18:30:06.261Z,2.30
2017-06-14T18:32:32.841Z,3.00
2017-06-14T18:34:59.420Z,3.60
2017-06-14T18:37:26.032Z,3.50
2017-06-14T18:39:52.704Z,2.57
2017-06-14T18:42:20.247Z,2.20
2017-06-14T18:44:46.876Z,2.00
2017-06-14T18:47:13.584Z,2.10
2017-06-14T18:49:40.218Z,3.00
2017-06-14T18:52:07.563Z,2.67
2017-06-14T18:54:34.973Z,3.50
2017-06-14T18:57:01.662Z,2.63
2017-06-14T18:59:28.125Z,2.63
2017-06-14T19:01:54.693Z,3.17
2017-06-14T19:04:21.245Z,6.43
2017-06-14T19:06:47.881Z,2.83
2017-06-14T19:09:14.377Z,2.83
2017-06-14T19:11:40.989Z,3.93
2017-06-14T19:14:07.638Z,2.80
2017-06-14T19:16:34.348Z,3.47
2017-06-14T19:19:00.909Z,3.50
2017-06-14T19:21:27.479Z,2.40
2017-06-14T19:23:54.097Z,3.73
2017-06-14T19:26:20.751Z,4.20
2017-06-14T19:28:47.325Z,3.13
2017-06-14T19:31:20.009Z,2.70
2017-06-14T19:33:46.741Z,2.87
2017-06-14T19:36:13.477Z,4.80
2017-06-14T19:38:40.097Z,2.70
2017-06-14T19:41:06.653Z,2.53
2017-06-14T19:43:33.317Z,3.23
2017-06-14T19:45:59.924Z,3.90
2017-06-14T19:48:26.557Z,2.60
2017-06-14T19:50:53.153Z,4.10
2017-06-14T19:53:19.728Z,2.50
2017-06-14T19:55:47.047Z,3.40
2017-06-14T19:58:13.679Z,3.20
2017-06-14T20:00:40.273Z,3.00
2017-06-14T20:03:06.893Z,3.70
2017-06-14T20:05:33.330Z,3.00
2017-06-14T20:08:00.690Z,3.23
2017-06-14T20:10:27.533Z,3.07
2017-06-14T20:12:54.173Z,3.93
2017-06-14T20:15:20.939Z,3.80
2017-06-14T20:17:47.494Z,6.47
2017-06-14T20:20:14.789Z,4.40
2017-06-14T20:22:41.253Z,4.90
2017-06-14T20:25:07.852Z,3.63
2017-06-14T20:27:34.501Z,3.03
2017-06-14T20:30:01.065Z,3.57
2017-06-14T20:32:27.602Z,3.53
2017-06-14T20:34:54.146Z,5.53
2017-06-14T20:37:20.737Z,5.73
2017-06-14T20:39:47.398Z,5.20
2017-06-14T20:42:14.106Z,5.67
2017-06-14T20:44:40.577Z,4.33
2017-06-14T20:47:07.118Z,4.83
2017-06-14T20:49:33.845Z,7.50
2017-06-14T20:52:01.145Z,6.90
2017-06-14T20:54:27.752Z,5.90
2017-06-14T20:56:54.389Z,6.90
2017-06-14T20:59:21.052Z,7.60
2017-06-14T21:01:47.515Z,8.90
2017-06-14T21:04:14.109Z,6.43
2017-06-14T21:06:40.837Z,6.90
2017-06-14T21:09:07.269Z,5.57
2017-06-14T21:11:34.449Z,9.10
2017-06-14T21:14:00.837Z,4.40
2017-06-14T21:16:27.206Z,5.17
2017-06-14T21:18:54.119Z,4.77
2017-06-14T21:21:20.661Z,4.13
2017-06-14T21:23:47.085Z,5.00
2017-06-14T21:26:13.429Z,6.10
2017-06-14T21:28:39.769Z,4.63
2017-06-14T21:31:06.139Z,4.03
2017-06-14T21:33:32.543Z,5.63
2017-06-14T21:35:58.989Z,3.07
2017-06-14T21:38:25.325Z,4.47
2017-06-14T21:40:51.637Z,5.73
2017-06-14T21:43:17.969Z,4.93
2017-06-14T21:45:44.322Z,6.43
2017-06-14T21:48:11.457Z,3.30
2017-06-14T21:50:38.689Z,5.53
2017-06-14T21:53:05.257Z,3.60
2017-06-14T21:55:31.573Z,3.97
2017-06-14T21:57:58.135Z,3.50
2017-06-14T22:00:25.494Z,3.73
2017-06-14T22:02:51.809Z,3.13
2017-06-14T22:05:18.169Z,5.83
2017-06-14T22:07:45.701Z,4.47
2017-06-14T22:10:12.045Z,5.23
2017-06-14T22:12:38.437Z,8.80
2017-06-14T22:15:04.773Z,4.63
2017-06-14T22:17:31.967Z,7.33
2017-06-14T22:19:58.452Z,6.80
2017-06-14T22:22:25.509Z,3.53
2017-06-14T22:24:51.841Z,4.10
2017-06-14T22:27:18.212Z,4.57
2017-06-14T22:29:46.967Z,4.77
2017-06-14T22:32:13.366Z,5.80
2017-06-14T22:34:39.703Z,4.73
2017-06-14T22:37:06.065Z,4.90
2017-06-14T22:39:32.418Z,5.43
2017-06-14T22:41:58.834Z,4.17
2017-06-14T22:44:25.189Z,4.30
2017-06-14T22:46:51.532Z,6.60
2017-06-14T22:49:17.922Z,4.27
2017-06-14T22:51:44.261Z,4.50
2017-06-14T22:54:10.609Z,4.63
2017-06-14T22:56:36.937Z,5.07
2017-06-14T22:59:03.852Z,5.90
2017-06-14T23:01:30.314Z,4.43
2017-06-14T23:03:56.657Z,4.37
2017-06-14T23:06:23.085Z,6.33
2017-06-14T23:08:49.845Z,4.97
2017-06-14T23:11:16.221Z,4.50
2017-06-14T23:13:42.589Z,7.07
2017-06-14T23:16:08.946Z,4.77
2017-06-14T23:18:36.117Z,4.90
2017-06-14T23:21:02.469Z,4.40
2017-06-14T23:23:28.818Z,5.20
2017-06-14T23:25:55.206Z,5.70
2017-06-14T23:28:21.857Z,5.23
2017-06-14T23:30:48.451Z,4.40
2017-06-14T23:33:15.022Z,12.13
2017-06-14T23:35:41.608Z,4.93
2017-06-14T23:38:09.436Z,4.47
2017-06-14T23:40:35.948Z,7.67
2017-06-14T23:43:02.552Z,5.40
2017-06-14T23:45:29.151Z,5.27
2017-06-14T23:47:55.788Z,6.30
2017-06-14T23:50:22.373Z,5.00
2017-06-14T23:52:49.010Z,5.47
2017-06-14T23:55:15.602Z,6.33
2017-06-14T23:57:42.663Z,6.13
